createdAt,value
2022-11-03T00:02:09.116Z,7.75
2022-11-03T00:04:35.780Z,10.45
2022-11-03T00:07:02.430Z,11.18
2022-11-03T00:09:31.233Z,6.28
2022-11-03T00:11:58.201Z,6.75
2022-11-03T00:14:24.781Z,10.15
2022-11-03T00:16:51.366Z,11.55
2022-11-03T00:19:17.993Z,8.07
2022-11-03T00:21:45.192Z,8.73
2022-11-03T00:24:12.598Z,11.95
2022-11-03T00:26:39.699Z,10.80
2022-11-03T00:29:11.874Z,13.98
2022-11-03T00:31:40.412Z,10.18
2022-11-03T00:34:07.690Z,10.95
2022-11-03T00:36:42.515Z,11.75
2022-11-03T00:39:10.078Z,11.20
2022-11-03T00:41:37.026Z,9.10
2022-11-03T00:44:03.741Z,10.02
2022-11-03T00:46:30.653Z,9.60
2022-11-03T00:48:57.321Z,9.48
2022-11-03T00:51:30.169Z,11.02
2022-11-03T00:54:01.816Z,8.32
2022-11-03T00:56:32.473Z,8.30
2022-11-03T00:59:00.385Z,11.30
2022-11-03T01:01:56.554Z,9.23
2022-11-03T01:04:41.933Z,9.05
2022-11-03T01:07:08.554Z,10.90
2022-11-03T01:09:40.052Z,9.68
2022-11-03T01:12:11.222Z,11.88
2022-11-03T01:14:47.477Z,13.68
2022-11-03T01:17:17.636Z,9.05
2022-11-03T01:19:44.841Z,12.40
2022-11-03T01:22:12.225Z,12.65
2022-11-03T01:24:43.062Z,9.43
2022-11-03T01:27:17.269Z,9.50
2022-11-03T01:29:44.233Z,11.15
2022-11-03T01:32:11.210Z,10.38
2022-11-03T01:34:38.113Z,10.40
2022-11-03T01:37:05.526Z,8.57
2022-11-03T01:39:32.103Z,12.45
2022-11-03T01:41:58.886Z,12.43
2022-11-03T01:44:34.163Z,8.45
2022-11-03T01:47:07.895Z,10.77
2022-11-03T01:49:52.729Z,10.07
2022-11-03T01:52:27.969Z,8.73
2022-11-03T01:55:00.699Z,10.48
2022-11-03T01:57:34.954Z,11.63
2022-11-03T02:00:03.006Z,11.15
2022-11-03T02:02:29.735Z,15.15
2022-11-03T02:04:58.468Z,10.85
2022-11-03T02:07:57.657Z,11.80
2022-11-03T02:10:24.996Z,12.88
2022-11-03T02:12:52.494Z,10.20
2022-11-03T02:15:21.850Z,13.63
2022-11-03T02:17:50.929Z,14.68
2022-11-03T02:20:26.131Z,18.48
2022-11-03T02:22:55.593Z,11.80
2022-11-03T02:25:47.501Z,15.18
2022-11-03T02:28:23.462Z,31.40
2022-11-03T02:31:15.716Z,24.15
2022-11-03T02:33:55.782Z,41.60
2022-11-03T02:36:35.503Z,51.60
2022-11-03T02:39:16.437Z,52.22
2022-11-03T02:41:46.118Z,52.05
2022-11-03T02:44:17.466Z,57.17
2022-11-03T02:46:47.360Z,67.25
2022-11-03T02:49:13.984Z,60.35
2022-11-03T02:51:40.852Z,55.22
2022-11-03T02:54:23.639Z,35.28
2022-11-03T02:56:54.136Z,50.45
2022-11-03T02:59:27.809Z,39.38
2022-11-03T03:02:06.802Z,43.95
2022-11-03T03:04:51.506Z,39.72
2022-11-03T03:07:25.333Z,51.97
2022-11-03T03:09:58.685Z,54.13
2022-11-03T03:12:26.806Z,48.53
2022-11-03T03:14:57.102Z,46.58
2022-11-03T03:17:41.583Z,55.95
2022-11-03T03:20:08.645Z,52.50
2022-11-03T03:22:42.969Z,51.53
2022-11-03T03:25:16.896Z,70.10
2022-11-03T03:27:49.045Z,57.70
2022-11-03T03:30:17.193Z,49.75
2022-11-03T03:32:47.690Z,100.40
2022-11-03T03:35:19.307Z,53.58
2022-11-03T03:37:50.207Z,51.47
2022-11-03T03:40:23.286Z,53.70
2022-11-03T03:42:52.033Z,48.42
2022-11-03T03:45:19.961Z,121.15
2022-11-03T03:47:48.077Z,52.22
2022-11-03T03:50:14.841Z,47.13
2022-11-03T03:52:41.660Z,40.80
2022-11-03T03:55:17.051Z,45.00
2022-11-03T03:57:44.808Z,43.75
2022-11-03T04:00:16.107Z,60.42
2022-11-03T04:02:42.797Z,62.35
2022-11-03T04:05:09.435Z,51.63
2022-11-03T04:07:48.063Z,45.90
2022-11-03T04:10:16.893Z,37.40
2022-11-03T04:13:03.492Z,33.85
2022-11-03T04:15:49.868Z,27.25
2022-11-03T04:18:36.328Z,31.75
2022-11-03T04:21:21.601Z,30.10
2022-11-03T04:23:48.308Z,32.70
2022-11-03T04:26:17.570Z,29.70
2022-11-03T04:28:45.104Z,27.38
2022-11-03T04:31:16.621Z,28.38
2022-11-03T04:33:44.373Z,26.08
2022-11-03T04:36:15.127Z,21.40
2022-11-03T04:38:43.804Z,24.70
2022-11-03T04:41:24.805Z,22.83
2022-11-03T04:43:52.732Z,22.65
2022-11-03T04:46:28.115Z,25.85
2022-11-03T04:48:58.688Z,40.13
2022-11-03T04:51:28.219Z,37.28
2022-11-03T04:54:00.156Z,43.08
2022-11-03T04:56:26.822Z,34.30
2022-11-03T04:58:54.001Z,33.88
2022-11-03T05:01:24.557Z,37.13
2022-11-03T05:03:56.333Z,41.10
2022-11-03T05:06:27.009Z,41.63
2022-11-03T05:08:58.571Z,38.15
2022-11-03T05:11:30.028Z,41.80
2022-11-03T05:14:01.491Z,40.38
2022-11-03T05:16:29.382Z,38.42
2022-11-03T05:18:56.621Z,38.22
2022-11-03T05:21:27.003Z,45.40
2022-11-03T05:23:58.221Z,36.17
2022-11-03T05:26:28.389Z,44.08
2022-11-03T05:29:19.590Z,39.50
2022-11-03T05:31:48.401Z,38.80
2022-11-03T05:34:37.569Z,35.17
2022-11-03T05:37:07.123Z,38.70
2022-11-03T05:39:40.618Z,38.53
2022-11-03T05:42:45.075Z,31.50
2022-11-03T05:45:24.362Z,29.58
2022-11-03T05:47:55.425Z,33.42
2022-11-03T05:50:27.502Z,39.50
2022-11-03T05:52:59.712Z,40.08
2022-11-03T05:55:30.264Z,38.17
2022-11-03T05:58:00.009Z,35.83
2022-11-03T06:00:32.725Z,35.90
2022-11-03T06:03:00.101Z,39.10
2022-11-03T06:05:28.474Z,37.95
2022-11-03T06:07:57.894Z,38.15
2022-11-03T06:10:31.280Z,45.45
2022-11-03T06:13:11.679Z,35.40
2022-11-03T06:15:38.297Z,39.03
2022-11-03T06:18:26.614Z,40.15
2022-11-03T06:20:59.722Z,37.75
2022-11-03T06:23:26.693Z,42.17
2022-11-03T06:25:55.751Z,31.63
2022-11-03T06:28:27.030Z,36.03
2022-11-03T06:30:53.804Z,31.30
2022-11-03T06:33:25.724Z,31.15
2022-11-03T06:35:55.498Z,34.33
2022-11-03T06:38:25.913Z,30.45
2022-11-03T06:40:53.626Z,31.48
2022-11-03T06:43:43.639Z,33.47
2022-11-03T06:46:19.191Z,33.25
2022-11-03T06:48:45.890Z,33.40
2022-11-03T06:51:31.341Z,28.35
2022-11-03T06:53:59.325Z,34.08
2022-11-03T06:56:31.655Z,29.40
2022-11-03T06:58:58.520Z,28.33
2022-11-03T07:01:31.292Z,32.47
2022-11-03T07:04:02.269Z,28.45
2022-11-03T07:06:36.309Z,26.10
2022-11-03T07:09:06.579Z,23.35
2022-11-03T07:11:47.544Z,23.23
2022-11-03T07:14:21.513Z,21.58
2022-11-03T07:16:54.484Z,28.40
2022-11-03T07:19:26.640Z,30.77
2022-11-03T07:21:55.144Z,28.35
2022-11-03T07:24:29.524Z,29.65
2022-11-03T07:27:02.664Z,29.23
2022-11-03T07:29:31.208Z,29.35
2022-11-03T07:31:59.588Z,27.95
2022-11-03T07:34:32.329Z,30.52
2022-11-03T07:37:00.070Z,26.10
2022-11-03T07:39:35.069Z,28.45
2022-11-03T07:42:11.786Z,27.83
2022-11-03T07:44:38.949Z,25.05
2022-11-03T07:47:12.241Z,31.65
2022-11-03T07:52:11.905Z,27.77
2022-11-03T07:54:38.490Z,27.05
2022-11-03T07:57:19.593Z,27.17
2022-11-03T07:59:49.049Z,31.30
2022-11-03T08:02:21.551Z,30.30
2022-11-03T08:04:48.207Z,28.00
2022-11-03T08:07:14.779Z,35.25
2022-11-03T08:09:41.347Z,28.95
2022-11-03T08:12:08.000Z,23.77
2022-11-03T08:14:35.370Z,26.52
2022-11-03T08:17:01.978Z,22.67
2022-11-03T08:19:28.596Z,24.90
2022-11-03T08:21:55.168Z,28.30
2022-11-03T08:24:21.735Z,22.83
2022-11-03T08:26:49.215Z,22.20
2022-11-03T08:29:17.689Z,25.10
2022-11-03T08:31:44.644Z,28.25
2022-11-03T08:34:11.517Z,27.60
2022-11-03T08:36:38.281Z,30.88
2022-11-03T08:39:05.332Z,28.85
2022-11-03T08:41:31.992Z,29.80
2022-11-03T08:43:58.589Z,28.58
2022-11-03T08:46:25.230Z,27.80
2022-11-03T08:48:52.072Z,27.85
2022-11-03T08:51:18.733Z,30.17
2022-11-03T08:53:46.394Z,27.35
2022-11-03T08:56:15.038Z,25.38
2022-11-03T08:58:47.046Z,21.08
2022-11-03T09:01:14.177Z,22.25
2022-11-03T09:03:41.396Z,22.42
2022-11-03T09:06:08.593Z,23.38
2022-11-03T09:11:21.817Z,19.45
2022-11-03T09:13:48.374Z,18.65
2022-11-03T09:16:15.021Z,19.85
2022-11-03T09:18:41.588Z,16.80
2022-11-03T09:21:08.965Z,19.67
2022-11-03T09:23:35.601Z,18.58
2022-11-03T09:26:02.207Z,22.40
2022-11-03T09:28:28.770Z,20.05
2022-11-03T09:30:55.360Z,18.80
2022-11-03T09:33:21.954Z,19.75
2022-11-03T09:35:48.612Z,19.35
2022-11-03T09:38:15.346Z,20.25
2022-11-03T09:40:42.049Z,18.52
2022-11-03T09:43:09.150Z,22.20
2022-11-03T09:45:36.276Z,18.77
2022-11-03T09:48:02.916Z,21.40
2022-11-03T09:50:29.693Z,19.23
2022-11-03T09:52:57.531Z,23.40
2022-11-03T09:55:26.202Z,18.42
2022-11-03T09:57:55.682Z,17.50
2022-11-03T10:00:23.893Z,20.45
2022-11-03T10:02:51.127Z,18.05
2022-11-03T10:05:26.534Z,19.85
2022-11-03T10:07:59.178Z,19.77
2022-11-03T10:10:26.297Z,18.52
2022-11-03T10:12:53.670Z,20.80
2022-11-03T10:15:23.360Z,19.25
2022-11-03T10:17:51.321Z,19.92
2022-11-03T10:20:20.918Z,20.25
2022-11-03T10:22:51.675Z,18.63
2022-11-03T10:25:41.855Z,21.08
2022-11-03T10:28:22.642Z,19.30
2022-11-03T10:31:14.698Z,20.30
2022-11-03T10:33:55.213Z,25.70
2022-11-03T10:36:26.366Z,24.30
2022-11-03T10:38:53.748Z,23.90
2022-11-03T10:41:28.727Z,30.60
2022-11-03T10:44:20.329Z,25.15
2022-11-03T10:47:05.031Z,24.17
2022-11-03T10:49:36.569Z,23.38
2022-11-03T10:52:17.234Z,23.00
2022-11-03T10:54:43.917Z,22.00
2022-11-03T10:57:10.566Z,21.52
2022-11-03T10:59:38.460Z,19.92
2022-11-03T11:02:16.791Z,20.35
2022-11-03T11:04:43.724Z,25.95
2022-11-03T11:07:20.381Z,24.05
2022-11-03T11:09:47.321Z,28.85
2022-11-03T11:12:21.402Z,28.13
2022-11-03T11:14:59.010Z,21.30
2022-11-03T11:17:37.624Z,21.45
2022-11-03T11:20:21.333Z,17.77
2022-11-03T11:22:49.994Z,18.55
2022-11-03T11:25:18.783Z,18.15
2022-11-03T11:27:45.326Z,19.60
2022-11-03T11:30:20.966Z,20.50
2022-11-03T11:32:58.089Z,20.15
2022-11-03T11:35:26.219Z,20.40
2022-11-03T11:37:54.081Z,29.70
2022-11-03T11:40:50.452Z,27.50
2022-11-03T11:43:20.062Z,34.67
2022-11-03T11:46:23.665Z,30.60
2022-11-03T11:49:02.201Z,33.20
2022-11-03T11:51:33.634Z,36.30
2022-11-03T11:54:17.149Z,35.78
2022-11-03T11:56:47.377Z,34.40
2022-11-03T11:59:25.325Z,33.17
2022-11-03T12:01:56.221Z,38.63
2022-11-03T12:04:26.736Z,33.78
2022-11-03T12:06:53.526Z,39.00
2022-11-03T12:09:25.304Z,33.40
2022-11-03T12:11:55.633Z,41.78
2022-11-03T12:14:33.864Z,41.33
2022-11-03T12:17:18.919Z,49.08
2022-11-03T12:19:48.177Z,52.17
2022-11-03T12:22:23.390Z,51.10
2022-11-03T12:24:50.033Z,49.63
2022-11-03T12:27:25.760Z,55.60
2022-11-03T12:29:57.809Z,42.33
2022-11-03T12:32:34.137Z,38.85
2022-11-03T12:35:08.268Z,37.42
2022-11-03T12:40:01.691Z,39.83
2022-11-03T12:42:28.437Z,35.85
2022-11-03T12:44:55.964Z,37.13
2022-11-03T12:47:22.878Z,36.95
2022-11-03T12:49:49.568Z,39.97
2022-11-03T12:52:16.330Z,39.05
2022-11-03T12:54:42.928Z,40.20
2022-11-03T12:57:09.749Z,40.80
2022-11-03T12:59:36.436Z,39.42
2022-11-03T13:02:03.262Z,38.75
2022-11-03T13:04:29.988Z,42.38
2022-11-03T13:06:56.778Z,37.70
2022-11-03T13:09:23.377Z,36.67
2022-11-03T13:12:08.457Z,41.35
2022-11-03T13:14:35.049Z,35.92
2022-11-03T13:17:03.827Z,36.55
2022-11-03T13:19:30.654Z,30.27
2022-11-03T13:21:57.261Z,33.17
2022-11-03T13:24:23.825Z,34.08
2022-11-03T13:26:50.444Z,33.95
2022-11-03T13:29:17.001Z,32.38
2022-11-03T13:31:44.008Z,28.20
2022-11-03T13:34:10.613Z,27.42
2022-11-03T13:36:37.191Z,29.95
2022-11-03T13:39:03.989Z,24.33
2022-11-03T13:41:30.561Z,26.48
2022-11-03T13:43:57.217Z,27.33
2022-11-03T13:46:23.850Z,25.13
2022-11-03T13:51:37.021Z,28.80
2022-11-03T13:59:37.141Z,25.63
2022-11-03T14:04:51.434Z,26.02
2022-11-03T14:07:18.051Z,27.58
2022-11-03T14:09:44.626Z,24.75
2022-11-03T14:12:29.701Z,22.33
2022-11-03T14:15:00.361Z,22.17
2022-11-03T14:17:27.176Z,22.83
2022-11-03T14:19:55.588Z,26.15
2022-11-03T14:22:25.035Z,22.50
2022-11-03T14:24:52.160Z,23.65
2022-11-03T14:27:20.042Z,21.55
2022-11-03T14:29:50.306Z,23.38
2022-11-03T14:32:18.035Z,23.95
2022-11-03T14:34:45.035Z,25.30
2022-11-03T14:37:12.484Z,25.38
2022-11-03T14:39:39.400Z,23.95
2022-11-03T14:42:09.679Z,25.27
2022-11-03T14:44:38.562Z,22.60
2022-11-03T14:47:10.416Z,25.45
2022-11-03T14:49:37.424Z,25.77
2022-11-03T14:52:07.248Z,28.90
2022-11-03T14:54:35.101Z,28.60
2022-11-03T14:57:02.194Z,25.35
2022-11-03T14:59:29.082Z,30.77
2022-11-03T15:01:56.149Z,27.63
2022-11-03T15:04:22.930Z,26.92
2022-11-03T15:06:50.011Z,30.08
2022-11-03T15:09:17.496Z,26.98
2022-11-03T15:11:44.779Z,25.40
2022-11-03T15:14:12.114Z,27.48
2022-11-03T15:16:39.192Z,28.77
2022-11-03T15:19:06.443Z,29.92
2022-11-03T15:21:33.710Z,27.55
2022-11-03T15:26:46.968Z,30.77
2022-11-03T15:29:13.623Z,34.78
2022-11-03T15:31:46.141Z,33.17
2022-11-03T15:34:13.314Z,32.17
2022-11-03T15:36:40.065Z,41.15
2022-11-03T15:39:06.625Z,38.53
2022-11-03T15:41:33.245Z,31.75
2022-11-03T15:43:59.811Z,30.02
2022-11-03T15:46:26.547Z,26.02
2022-11-03T15:48:54.617Z,27.50
2022-11-03T15:51:21.398Z,33.13
2022-11-03T15:53:48.155Z,25.00
2022-11-03T15:56:16.070Z,25.75
2022-11-03T15:58:42.662Z,27.67
2022-11-03T16:01:09.307Z,25.25
2022-11-03T16:03:35.921Z,27.60
2022-11-03T16:06:02.505Z,24.75
2022-11-03T16:08:29.086Z,23.67
2022-11-03T16:10:58.246Z,24.70
2022-11-03T16:13:25.527Z,22.45
2022-11-03T16:15:54.522Z,24.27
2022-11-03T16:18:21.405Z,24.83
2022-11-03T16:20:48.065Z,26.20
2022-11-03T16:23:14.737Z,25.05
2022-11-03T16:25:41.348Z,27.63
2022-11-03T16:28:08.187Z,27.58
2022-11-03T16:30:35.504Z,25.63
2022-11-03T16:33:02.176Z,25.50
2022-11-03T16:35:29.733Z,25.80
2022-11-03T16:37:56.443Z,28.35
2022-11-03T16:40:23.776Z,24.08
2022-11-03T16:42:50.497Z,25.58
2022-11-03T16:45:22.240Z,25.10
2022-11-03T16:47:50.528Z,27.00
2022-11-03T16:50:18.680Z,24.60
2022-11-03T16:52:46.549Z,25.35
2022-11-03T16:55:14.996Z,25.30
2022-11-03T16:57:42.513Z,26.00
2022-11-03T17:00:13.827Z,21.75
2022-11-03T17:02:41.005Z,24.98
2022-11-03T17:05:08.572Z,24.60
2022-11-03T17:07:35.529Z,21.95
2022-11-03T17:10:02.300Z,23.17
2022-11-03T17:12:28.887Z,23.85
2022-11-03T17:14:56.837Z,23.80
2022-11-03T17:17:23.770Z,22.25
2022-11-03T17:19:50.749Z,26.02
2022-11-03T17:22:17.448Z,25.27
2022-11-03T17:24:44.100Z,27.50
2022-11-03T17:27:18.958Z,41.80
2022-11-03T17:29:52.725Z,25.63
2022-11-03T17:32:26.714Z,26.27
2022-11-03T17:34:53.981Z,25.17
2022-11-03T17:37:23.658Z,38.05
2022-11-03T17:39:50.497Z,25.83
2022-11-03T17:42:23.305Z,24.65
2022-11-03T17:44:51.755Z,22.08
2022-11-03T17:47:19.593Z,24.05
2022-11-03T17:49:47.682Z,25.52
2022-11-03T17:52:26.901Z,27.13
2022-11-03T17:54:57.427Z,30.42
2022-11-03T17:57:25.260Z,25.35
2022-11-03T17:59:54.830Z,27.90
2022-11-03T18:02:24.619Z,26.15
2022-11-03T18:04:55.319Z,30.88
2022-11-03T18:07:26.817Z,28.35
2022-11-03T18:09:53.781Z,26.60
2022-11-03T18:12:47.741Z,24.55
2022-11-03T18:15:19.214Z,25.48
2022-11-03T18:17:46.532Z,27.15
2022-11-03T18:20:19.542Z,28.88
2022-11-03T18:22:46.593Z,25.85
2022-11-03T18:25:18.848Z,25.08
2022-11-03T18:27:45.455Z,24.38
2022-11-03T18:30:16.722Z,27.60
2022-11-03T18:32:49.012Z,27.52
2022-11-03T18:35:23.868Z,24.90
2022-11-03T18:37:50.960Z,33.67
2022-11-03T18:40:20.281Z,31.77
2022-11-03T18:42:47.007Z,28.10
2022-11-03T18:45:16.201Z,32.95
2022-11-03T18:47:44.077Z,31.13
2022-11-03T18:50:15.600Z,28.83
2022-11-03T18:52:44.398Z,32.13
2022-11-03T18:55:12.403Z,31.60
2022-11-03T18:57:39.766Z,24.48
2022-11-03T19:00:19.148Z,27.15
2022-11-03T19:02:47.472Z,26.63
2022-11-03T19:05:18.674Z,24.13
2022-11-03T19:07:49.435Z,23.70
2022-11-03T19:10:21.436Z,25.50
2022-11-03T19:12:48.517Z,34.20
2022-11-03T19:15:18.205Z,53.88
2022-11-03T19:17:45.079Z,26.13
2022-11-03T19:20:15.990Z,22.98
2022-11-03T19:22:42.561Z,21.17
2022-11-03T19:25:09.432Z,22.08
2022-11-03T19:27:38.413Z,18.33
2022-11-03T19:30:05.655Z,24.98
2022-11-03T19:32:40.226Z,21.42
2022-11-03T19:35:15.431Z,45.15
2022-11-03T19:37:42.095Z,28.27
2022-11-03T19:40:16.279Z,20.83
2022-11-03T19:42:42.875Z,15.60
2022-11-03T19:45:18.440Z,18.05
2022-11-03T19:48:22.518Z,18.85
2022-11-03T19:50:43.635Z,18.05
2022-11-03T19:53:19.271Z,20.30
2022-11-03T19:55:46.180Z,19.30
2022-11-03T19:58:14.177Z,25.02
2022-11-03T20:00:41.198Z,16.58
2022-11-03T20:03:07.793Z,15.48
2022-11-03T20:05:34.717Z,13.65
2022-11-03T20:08:04.433Z,16.42
2022-11-03T20:10:34.964Z,13.88
2022-11-03T20:13:03.073Z,13.40
2022-11-03T20:15:29.677Z,30.67
2022-11-03T20:17:56.271Z,15.93
2022-11-03T20:20:26.748Z,15.25
2022-11-03T20:22:59.938Z,15.60
2022-11-03T20:28:00.045Z,19.30
2022-11-03T20:30:28.325Z,16.65
2022-11-03T20:32:54.900Z,18.27
2022-11-03T20:35:24.745Z,19.60
2022-11-03T20:37:56.482Z,23.77
2022-11-03T20:40:26.020Z,19.75
2022-11-03T20:42:59.333Z,20.35
2022-11-03T20:47:52.803Z,23.05
2022-11-03T20:50:20.535Z,18.75
2022-11-03T20:52:48.442Z,19.90
2022-11-03T20:55:21.324Z,16.67
2022-11-03T20:57:49.028Z,16.63
2022-11-03T21:00:24.271Z,15.57
2022-11-03T21:02:51.742Z,15.73
2022-11-03T21:05:23.164Z,15.27
2022-11-03T21:07:50.591Z,14.75
2022-11-03T21:10:20.899Z,14.05
2022-11-03T21:12:48.280Z,14.60
2022-11-03T21:15:52.362Z,18.33
2022-11-03T21:18:48.681Z,16.25
2022-11-03T21:21:20.737Z,15.15
2022-11-03T21:23:48.694Z,15.45
2022-11-03T21:26:15.286Z,15.65
2022-11-03T21:28:41.969Z,15.55
2022-11-03T21:31:13.293Z,16.45
2022-11-03T21:33:40.076Z,16.27
2022-11-03T21:36:06.980Z,12.93
2022-11-03T21:38:33.605Z,13.52
2022-11-03T21:41:20.118Z,14.73
2022-11-03T21:44:04.859Z,16.23
2022-11-03T21:46:31.506Z,15.18
2022-11-03T21:49:16.406Z,16.25
2022-11-03T21:51:43.002Z,15.18
2022-11-03T21:54:10.142Z,14.55
2022-11-03T21:56:36.698Z,15.27
2022-11-03T21:59:03.330Z,14.60
2022-11-03T22:01:30.041Z,13.98
2022-11-03T22:03:56.921Z,15.55
2022-11-03T22:06:23.499Z,18.08
2022-11-03T22:08:50.093Z,16.73
2022-11-03T22:11:22.734Z,17.65
2022-11-03T22:13:58.367Z,16.25
2022-11-03T22:16:37.704Z,15.73
2022-11-03T22:19:31.003Z,16.60
2022-11-03T22:22:17.289Z,12.90
2022-11-03T22:25:02.867Z,13.93
2022-11-03T22:27:31.629Z,15.77
2022-11-03T22:30:16.788Z,15.70
2022-11-03T22:32:44.093Z,14.73
2022-11-03T22:35:30.534Z,13.18
2022-11-03T22:38:04.683Z,16.33
2022-11-03T22:40:57.708Z,14.93
2022-11-03T22:43:43.910Z,16.97
2022-11-03T22:46:11.655Z,13.00
2022-11-03T22:48:38.835Z,14.65
2022-11-03T22:51:11.093Z,12.15
2022-11-03T22:53:56.770Z,14.98
2022-11-03T22:56:25.471Z,16.67
2022-11-03T22:58:52.602Z,12.15
2022-11-03T23:01:21.602Z,16.55
2022-11-03T23:03:49.248Z,14.85
2022-11-03T23:06:20.971Z,15.32
2022-11-03T23:08:48.558Z,12.80
2022-11-03T23:11:20.553Z,17.92
2022-11-03T23:13:52.397Z,13.32
2022-11-03T23:16:21.045Z,13.95
2022-11-03T23:19:06.347Z,12.93
2022-11-03T23:21:34.213Z,14.93
2022-11-03T23:24:20.081Z,14.13
2022-11-03T23:26:47.366Z,10.98
2022-11-03T23:29:14.701Z,12.65
2022-11-03T23:31:43.060Z,12.23
2022-11-03T23:34:11.210Z,13.07
2022-11-03T23:36:38.405Z,17.40
2022-11-03T23:39:06.355Z,17.50
2022-11-03T23:41:33.853Z,17.13
2022-11-03T23:44:00.580Z,14.05
2022-11-03T23:46:47.305Z,16.17
2022-11-03T23:49:14.658Z,16.38
2022-11-03T23:51:42.170Z,13.68
2022-11-03T23:54:10.682Z,13.80
2022-11-03T23:57:00.812Z,14.05
2022-11-03T23:59:28.453Z,17.30
